Time;durP1;ratioP1;P1;durP2;ratioP2;P2;SDS_P1;SDS_P2;PMS_P1;PMS_P2;Temp;Humidity;BMP_temperature;BMP_pressure;BME280_temperature;BME280_humidity;BME280_pressure;Samples;Min_cycle;Max_cycle;Signal;HPM_P1;HPM_P2
2022/03/10 00:02:06;;;;;;;32.30;15.27;;;;;;;-144.65;100.00;64500.88;5088999;28;20567;-75
2022/03/10 00:04:36;;;;;;;37.55;14.63;;;;;;;-144.65;100.00;64500.88;5090343;28;20039;-74
2022/03/10 00:07:02;;;;;;;31.80;14.90;;;;;;;-144.65;100.00;64500.88;5106485;28;20548;-75
2022/03/10 00:09:29;;;;;;;38.55;15.40;;;;;;;-144.65;100.00;64500.88;5076851;28;20385;-75
2022/03/10 00:11:54;;;;;;;35.63;15.80;;;;;;;-144.65;100.00;64500.88;5069969;28;20032;-75
2022/03/10 00:14:20;;;;;;;32.35;15.30;;;;;;;-144.65;100.00;64500.88;5068720;28;20037;-74
2022/03/10 00:16:45;;;;;;;29.27;13.10;;;;;;;-144.65;100.00;64500.88;5085269;28;20097;-74
2022/03/10 00:19:12;;;;;;;34.97;14.88;;;;;;;-144.65;100.00;64500.88;5089472;28;20465;-75
2022/03/10 00:21:38;;;;;;;27.35;13.20;;;;;;;-144.65;100.00;64500.88;5090161;28;20032;-74
2022/03/10 00:24:05;;;;;;;36.00;15.00;;;;;;;-144.65;100.00;64500.88;5089414;28;20024;-74
2022/03/10 00:26:30;;;;;;;33.30;14.98;;;;;;;-144.65;100.00;64500.88;5089964;28;20434;-75
2022/03/10 00:28:56;;;;;;;36.47;14.80;;;;;;;-144.65;100.00;64500.88;5091018;28;20020;-75
2022/03/10 00:31:21;;;;;;;38.33;16.00;;;;;;;-144.65;100.00;64500.88;5091911;28;20020;-75
2022/03/10 00:33:47;;;;;;;35.33;15.85;;;;;;;-144.65;100.00;64500.88;5094671;28;20081;-75
2022/03/10 00:36:12;;;;;;;33.20;15.48;;;;;;;-144.65;100.00;64500.88;5083166;28;20089;-74
2022/03/10 00:38:38;;;;;;;33.42;15.63;;;;;;;-144.65;100.00;64500.88;5093780;28;20055;-74
2022/03/10 00:41:04;;;;;;;33.03;14.38;;;;;;;-144.65;100.00;64500.88;5093964;28;20389;-74
2022/03/10 00:43:29;;;;;;;37.33;15.95;;;;;;;-144.65;100.00;64500.88;5093806;28;20127;-74
2022/03/10 00:45:54;;;;;;;36.10;14.98;;;;;;;-144.65;100.00;64500.88;5094993;28;20024;-74
2022/03/10 00:48:20;;;;;;;31.10;14.18;;;;;;;-144.65;100.00;64500.88;5095060;28;20020;-74
2022/03/10 00:50:45;;;;;;;34.78;15.15;;;;;;;-144.65;100.00;64500.88;5093851;28;20425;-75
2022/03/10 00:53:11;;;;;;;37.47;15.57;;;;;;;-144.65;100.00;64500.88;5094279;28;20040;-74
2022/03/10 00:55:37;;;;;;;26.98;13.02;;;;;;;-144.65;100.00;64500.88;5083940;28;20020;-75
2022/03/10 00:58:02;;;;;;;36.83;15.00;;;;;;;-144.65;100.00;64500.88;5083563;28;20032;-74
2022/03/10 01:00:28;;;;;;;29.52;13.63;;;;;;;-144.65;100.00;64500.88;5081469;28;20505;-74
2022/03/10 01:02:55;;;;;;;29.13;14.25;;;;;;;-144.65;100.00;64500.88;5084249;28;20081;-74
2022/03/10 01:05:21;;;;;;;27.92;14.15;;;;;;;-144.65;100.00;64500.88;5080957;28;20042;-74
2022/03/10 01:07:46;;;;;;;24.13;12.77;;;;;;;-144.65;100.00;64500.88;5072903;28;20012;-74
2022/03/10 01:10:14;;;;;;;29.77;14.63;;;;;;;-144.65;100.00;64500.88;5073205;28;20036;-74
2022/03/10 01:12:42;;;;;;;27.70;14.20;;;;;;;-144.65;100.00;64500.88;5072869;28;20024;-74
2022/03/10 01:15:09;;;;;;;32.90;14.77;;;;;;;-144.65;100.00;64500.88;5071626;28;20016;-74
2022/03/10 01:17:35;;;;;;;28.90;13.13;;;;;;;-144.65;100.00;64500.88;5074111;28;20031;-75
2022/03/10 01:20:00;;;;;;;37.17;15.80;;;;;;;-144.65;100.00;64500.88;5074271;28;20016;-74
2022/03/10 01:22:26;;;;;;;31.88;13.90;;;;;;;-144.65;100.00;64500.88;5072491;28;20028;-74
2022/03/10 01:24:51;;;;;;;32.15;14.00;;;;;;;-144.65;100.00;64500.88;5071538;28;20029;-74
2022/03/10 01:27:17;;;;;;;34.80;15.95;;;;;;;-144.65;100.00;64500.88;5070041;28;20024;-74
2022/03/10 01:29:43;;;;;;;43.75;17.23;;;;;;;-144.65;100.00;64500.88;5071175;28;20066;-75
2022/03/10 01:32:08;;;;;;;37.10;17.05;;;;;;;-144.65;100.00;64500.88;5072184;28;20071;-74
2022/03/10 01:34:34;;;;;;;44.00;19.65;;;;;;;-144.65;100.00;64500.88;5072033;28;20048;-76
2022/03/10 01:37:00;;;;;;;42.90;19.00;;;;;;;-144.65;100.00;64500.88;5072886;28;20021;-74
2022/03/10 01:39:25;;;;;;;41.67;17.80;;;;;;;-144.65;100.00;64500.88;5073717;28;20101;-75
2022/03/10 01:41:51;;;;;;;39.03;18.00;;;;;;;-144.65;100.00;64500.88;5071635;28;20025;-74
2022/03/10 01:44:20;;;;;;;33.38;17.52;;;;;;;-144.65;100.00;64500.88;5071521;28;20032;-73
2022/03/10 01:46:46;;;;;;;39.65;19.15;;;;;;;-144.65;100.00;64500.88;5054896;28;20062;-74
2022/03/10 01:49:11;;;;;;;39.83;18.70;;;;;;;-144.65;100.00;64500.88;5070990;28;20052;-74
2022/03/10 01:51:38;;;;;;;39.90;19.08;;;;;;;-144.65;100.00;64500.88;5072135;28;20107;-74
2022/03/10 01:54:04;;;;;;;37.70;17.65;;;;;;;-144.65;100.00;64500.88;5072173;28;20094;-74
2022/03/10 01:56:32;;;;;;;42.42;19.02;;;;;;;-144.65;100.00;64500.88;5072061;28;20032;-74
2022/03/10 01:59:00;;;;;;;38.33;19.05;;;;;;;-144.65;100.00;64500.88;5070596;28;20025;-74
2022/03/10 02:01:26;;;;;;;42.15;17.52;;;;;;;-144.65;100.00;64500.88;5070646;28;20721;-74
2022/03/10 02:03:51;;;;;;;37.42;17.55;;;;;;;-144.65;100.00;64500.88;5071539;28;20033;-74
2022/03/10 02:06:17;;;;;;;41.47;19.65;;;;;;;-144.65;100.00;64500.88;5073175;28;20020;-74
2022/03/10 02:11:27;;;;;;;41.88;19.15;;;;;;;-144.65;100.00;64500.88;5072057;28;20098;-74
2022/03/10 02:13:52;;;;;;;41.17;19.42;;;;;;;-144.65;100.00;64500.88;5070318;28;20447;-74
2022/03/10 02:19:03;;;;;;;36.72;18.17;;;;;;;-144.65;100.00;64500.88;5071674;28;20032;-74
2022/03/10 02:21:29;;;;;;;40.95;17.38;;;;;;;-144.65;100.00;64500.88;5071079;28;20386;-74
2022/03/10 02:23:54;;;;;;;35.53;17.10;;;;;;;-144.65;100.00;64500.88;5070318;28;20055;-74
2022/03/10 02:26:20;;;;;;;37.10;18.05;;;;;;;-144.65;100.00;64500.88;5071375;28;20037;-74
2022/03/10 02:28:46;;;;;;;36.42;16.85;;;;;;;-144.65;100.00;64500.88;5071471;28;20492;-74
2022/03/10 02:31:12;;;;;;;40.55;17.33;;;;;;;-144.65;100.00;64500.88;5071193;28;20133;-74
2022/03/10 02:33:38;;;;;;;30.85;16.98;;;;;;;-144.65;100.00;64500.88;5071349;28;20111;-74
2022/03/10 02:36:07;;;;;;;29.30;15.60;;;;;;;-144.65;100.00;64500.88;5071795;28;20028;-74
2022/03/10 02:38:33;;;;;;;35.55;16.92;;;;;;;-144.65;100.00;64500.88;5069829;28;20032;-74
2022/03/10 02:40:58;;;;;;;36.38;16.67;;;;;;;-144.65;100.00;64500.88;5071459;28;20028;-74
2022/03/10 02:43:24;;;;;;;36.72;18.15;;;;;;;-144.65;100.00;64500.88;5071183;28;20031;-74
2022/03/10 02:45:51;;;;;;;41.88;17.25;;;;;;;-144.65;100.00;64500.88;5071116;28;20869;-74
2022/03/10 02:48:17;;;;;;;35.83;17.35;;;;;;;-144.65;100.00;64500.88;5071078;28;20012;-74
2022/03/10 02:50:45;;;;;;;35.53;16.48;;;;;;;-144.65;100.00;64500.88;5069659;28;20036;-74
2022/03/10 02:53:11;;;;;;;39.65;17.73;;;;;;;-144.65;100.00;64500.88;5069587;28;20072;-74
2022/03/10 02:55:37;;;;;;;35.50;17.08;;;;;;;-144.65;100.00;64500.88;5070677;28;20059;-74
2022/03/10 02:58:03;;;;;;;41.13;18.67;;;;;;;-144.65;100.00;64500.88;5074965;28;20439;-74
2022/03/10 03:00:29;;;;;;;38.83;17.10;;;;;;;-144.65;100.00;64500.88;5091754;28;20031;-75
2022/03/10 03:02:55;;;;;;;34.65;17.92;;;;;;;-144.65;100.00;64500.88;5079667;28;20036;-74
2022/03/10 03:05:21;;;;;;;39.67;17.90;;;;;;;-144.65;100.00;64500.88;5070489;28;20039;-75
2022/03/10 03:07:48;;;;;;;40.83;17.27;;;;;;;-144.65;100.00;64500.88;5069507;28;20028;-74
2022/03/10 03:10:14;;;;;;;36.55;17.90;;;;;;;-144.65;100.00;64500.88;5070680;28;20039;-75
2022/03/10 03:12:47;;;;;;;33.33;16.50;;;;;;;-144.65;100.00;64500.88;5070027;28;20082;-74
2022/03/10 03:15:14;;;;;;;37.85;16.75;;;;;;;-144.65;100.00;64500.88;5082387;28;20085;-74
2022/03/10 03:17:39;;;;;;;32.90;16.67;;;;;;;-144.65;100.00;64500.88;5089215;28;20016;-75
2022/03/10 03:20:05;;;;;;;35.25;16.65;;;;;;;-144.65;100.00;64500.88;5089003;28;20542;-74
2022/03/10 03:22:31;;;;;;;31.35;16.95;;;;;;;-144.65;100.00;64500.88;5088193;28;20036;-74
2022/03/10 03:24:57;;;;;;;35.72;17.30;;;;;;;-144.65;100.00;64500.88;5089428;28;20520;-76
2022/03/10 03:27:23;;;;;;;31.48;16.55;;;;;;;-144.65;100.00;64500.88;5090283;28;20024;-74
2022/03/10 03:29:48;;;;;;;31.75;14.98;;;;;;;-144.65;100.00;64500.88;5090474;28;20032;-75
2022/03/10 03:32:14;;;;;;;32.40;16.48;;;;;;;-144.65;100.00;64500.88;5091922;28;20036;-75
2022/03/10 03:34:39;;;;;;;33.80;15.68;;;;;;;-144.65;100.00;64500.88;5091006;28;20526;-75
2022/03/10 03:37:06;;;;;;;34.42;16.35;;;;;;;-144.65;100.00;64500.88;5091531;28;20055;-74
2022/03/10 03:39:32;;;;;;;36.00;16.33;;;;;;;-144.65;100.00;64500.88;5088181;28;20024;-74
2022/03/10 03:41:57;;;;;;;35.30;17.13;;;;;;;-144.65;100.00;64500.88;5087636;28;20511;-74
2022/03/10 03:44:23;;;;;;;38.20;17.23;;;;;;;-144.65;100.00;64500.88;5092001;28;20160;-75
2022/03/10 03:46:48;;;;;;;34.35;16.30;;;;;;;-144.65;100.00;64500.88;5090629;28;20107;-74
2022/03/10 03:49:14;;;;;;;37.88;18.02;;;;;;;-144.65;100.00;64500.88;5090146;28;20047;-74
2022/03/10 03:51:40;;;;;;;37.97;17.30;;;;;;;-144.65;100.00;64500.88;5089046;28;20029;-74
2022/03/10 03:54:07;;;;;;;33.00;17.27;;;;;;;-144.65;100.00;64500.88;5090201;28;20055;-75
2022/03/10 03:56:37;;;;;;;33.72;15.70;;;;;;;-144.65;100.00;64500.88;5090546;28;20220;-74
2022/03/10 03:59:03;;;;;;;34.30;16.90;;;;;;;-144.65;100.00;64500.88;5090464;28;20053;-75
2022/03/10 04:01:29;;;;;;;34.90;18.20;;;;;;;-144.65;100.00;64500.88;5090042;28;20112;-74
2022/03/10 04:03:54;;;;;;;34.67;17.73;;;;;;;-144.65;100.00;64500.88;5090601;28;20058;-75
2022/03/10 04:06:20;;;;;;;37.70;18.25;;;;;;;-144.65;100.00;64500.88;5092921;28;20400;-75
2022/03/10 04:08:45;;;;;;;32.60;16.30;;;;;;;-144.65;100.00;64500.88;5094726;28;20734;-75
2022/03/10 04:11:11;;;;;;;35.92;15.95;;;;;;;-144.65;100.00;64500.88;5094488;28;20481;-75
2022/03/10 04:13:37;;;;;;;31.33;16.30;;;;;;;-144.65;100.00;64500.88;5094433;28;20028;-74
2022/03/10 04:16:03;;;;;;;41.58;17.30;;;;;;;-144.65;100.00;64500.88;5094057;28;20473;-74
2022/03/10 04:18:29;;;;;;;34.53;17.13;;;;;;;-144.65;100.00;64500.88;5094436;28;20020;-75
2022/03/10 04:20:56;;;;;;;37.05;16.85;;;;;;;-144.65;100.00;64500.88;5094041;28;20073;-75
2022/03/10 04:23:22;;;;;;;37.35;17.88;;;;;;;-144.65;100.00;64500.88;5093952;28;20028;-75
2022/03/10 04:25:47;;;;;;;40.90;17.55;;;;;;;-144.65;100.00;64500.88;5094148;28;20028;-74
2022/03/10 04:28:14;;;;;;;34.97;16.83;;;;;;;-144.65;100.00;64500.88;5094154;28;20028;-75
2022/03/10 04:30:39;;;;;;;40.33;17.67;;;;;;;-144.65;100.00;64500.88;5093937;28;20480;-76
2022/03/10 04:33:07;;;;;;;34.50;16.10;;;;;;;-144.65;100.00;64500.88;5093857;28;20040;-74
2022/03/10 04:35:33;;;;;;;34.85;15.70;;;;;;;-144.65;100.00;64500.88;5109630;28;20028;-74
2022/03/10 04:37:58;;;;;;;35.58;17.58;;;;;;;-144.65;100.00;64500.88;5094190;28;20392;-77
2022/03/10 04:40:24;;;;;;;33.80;16.33;;;;;;;-144.65;100.00;64500.88;5093483;28;20085;-74
2022/03/10 04:42:50;;;;;;;43.83;17.67;;;;;;;-144.65;100.00;64500.88;5078750;28;20040;-74
2022/03/10 04:45:16;;;;;;;40.97;16.88;;;;;;;-144.65;100.00;64500.88;5071521;28;20107;-74
2022/03/10 04:47:41;;;;;;;34.50;17.77;;;;;;;-144.65;100.00;64500.88;5076696;28;20115;-75
2022/03/10 04:50:11;;;;;;;39.28;19.00;;;;;;;-144.65;100.00;64500.88;5109177;28;20060;-74
2022/03/10 04:52:36;;;;;;;39.63;17.55;;;;;;;-144.65;100.00;64500.88;5109701;28;20032;-74
2022/03/10 04:55:02;;;;;;;44.67;18.13;;;;;;;-144.65;100.00;64500.88;5093344;28;20495;-75
2022/03/10 04:57:28;;;;;;;41.38;18.52;;;;;;;-144.65;100.00;64500.88;5091845;28;20050;-75
2022/03/10 04:59:53;;;;;;;45.70;19.02;;;;;;;-144.65;100.00;64500.88;5087616;28;20025;-75
2022/03/10 05:02:19;;;;;;;36.63;17.95;;;;;;;-144.65;100.00;64500.88;5072725;28;20038;-75
2022/03/10 05:04:44;;;;;;;43.75;20.60;;;;;;;-144.65;100.00;64500.88;5073110;28;20016;-75
2022/03/10 05:07:10;;;;;;;36.85;16.50;;;;;;;-144.65;100.00;64500.88;5073179;28;20025;-74
2022/03/10 05:09:36;;;;;;;33.95;16.55;;;;;;;-144.65;100.00;64500.88;5054654;28;20031;-74
2022/03/10 05:12:01;;;;;;;33.20;16.45;;;;;;;-144.65;100.00;64500.88;5072647;28;20033;-74
2022/03/10 05:14:27;;;;;;;35.42;17.40;;;;;;;-144.65;100.00;64500.88;5072433;28;20111;-74
2022/03/10 05:16:52;;;;;;;40.17;18.42;;;;;;;-144.65;100.00;64500.88;5072565;28;20389;-74
2022/03/10 05:19:18;;;;;;;36.08;17.05;;;;;;;-144.65;100.00;64500.88;5072523;28;20025;-75
2022/03/10 05:21:44;;;;;;;38.28;16.65;;;;;;;-144.65;100.00;64500.88;5073233;28;20028;-75
2022/03/10 05:24:10;;;;;;;37.55;16.65;;;;;;;-144.65;100.00;64500.88;5072550;28;20039;-74
2022/03/10 05:26:37;;;;;;;42.28;19.05;;;;;;;-144.65;100.00;64500.88;5072433;28;20108;-75
2022/03/10 05:29:02;;;;;;;49.72;18.20;;;;;;;-144.65;100.00;64500.88;5072319;28;20111;-74
2022/03/10 05:31:28;;;;;;;56.92;18.10;;;;;;;-144.65;100.00;64500.88;5080913;28;20111;-74
2022/03/10 05:33:54;;;;;;;43.65;19.02;;;;;;;-144.65;100.00;64500.88;5092495;28;20035;-74
2022/03/10 05:36:19;;;;;;;33.83;16.75;;;;;;;-144.65;100.00;64500.88;5092370;28;20031;-74
2022/03/10 05:38:45;;;;;;;43.47;18.92;;;;;;;-144.65;100.00;64500.88;5092560;28;20020;-74
2022/03/10 05:41:11;;;;;;;39.03;18.33;;;;;;;-144.65;100.00;64500.88;5092022;28;20032;-70
2022/03/10 05:43:36;;;;;;;43.45;19.33;;;;;;;-144.65;100.00;64500.88;5092468;28;20031;-69
2022/03/10 05:46:02;;;;;;;40.30;18.15;;;;;;;-144.65;100.00;64500.88;5092440;28;20484;-71
2022/03/10 05:48:29;;;;;;;38.00;18.08;;;;;;;-144.65;100.00;64500.88;5092382;28;20016;-70
2022/03/10 05:50:54;;;;;;;43.08;18.17;;;;;;;-144.65;100.00;64500.88;5092045;28;20030;-70
2022/03/10 05:53:20;;;;;;;54.25;21.73;;;;;;;-144.65;100.00;64500.88;5092003;28;20048;-69
2022/03/10 05:55:45;;;;;;;48.60;20.98;;;;;;;-144.65;100.00;64500.88;5087850;28;20457;-70
2022/03/10 05:58:11;;;;;;;47.90;20.88;;;;;;;-144.65;100.00;64500.88;5071502;28;20381;-70
2022/03/10 06:00:36;;;;;;;43.17;19.33;;;;;;;-144.65;100.00;64500.88;5071889;28;20040;-69
2022/03/10 06:03:02;;;;;;;48.05;21.45;;;;;;;-144.65;100.00;64500.88;5071352;28;20036;-71
2022/03/10 06:05:28;;;;;;;38.67;18.35;;;;;;;-144.65;100.00;64500.88;5071703;28;20021;-69
2022/03/10 06:07:53;;;;;;;52.72;24.92;;;;;;;-144.65;100.00;64500.88;5075623;28;20028;-69
2022/03/10 06:10:19;;;;;;;33.80;16.27;;;;;;;-144.65;100.00;64500.88;5071431;28;20043;-70
2022/03/10 06:12:45;;;;;;;37.22;17.25;;;;;;;-144.65;100.00;64500.88;5071355;28;20017;-70
2022/03/10 06:15:11;;;;;;;41.00;17.77;;;;;;;-144.65;100.00;64500.88;5071335;28;20025;-70
2022/03/10 06:17:36;;;;;;;35.75;17.35;;;;;;;-144.65;100.00;64500.88;5071446;28;20047;-71
2022/03/10 06:20:04;;;;;;;41.20;18.33;;;;;;;-144.65;100.00;64500.88;5071269;28;20016;-74
2022/03/10 06:22:31;;;;;;;37.80;18.13;;;;;;;-144.65;100.00;64500.88;5071365;28;20516;-75
2022/03/10 06:24:58;;;;;;;39.90;16.85;;;;;;;-144.65;100.00;64500.88;5073662;28;20028;-75
2022/03/10 06:27:24;;;;;;;41.65;18.13;;;;;;;-144.65;100.00;64500.88;5071210;28;20499;-76
2022/03/10 06:29:51;;;;;;;38.05;17.83;;;;;;;-144.65;100.00;64500.88;5071866;28;20478;-74
2022/03/10 06:32:18;;;;;;;39.97;18.85;;;;;;;-144.65;100.00;64500.88;5072373;28;20036;-74
2022/03/10 06:34:45;;;;;;;38.42;18.67;;;;;;;-144.65;100.00;64500.88;5072506;28;20397;-74
2022/03/10 06:37:12;;;;;;;36.97;18.70;;;;;;;-144.65;100.00;64500.88;5073124;28;20537;-74
2022/03/10 06:39:38;;;;;;;53.10;22.83;;;;;;;-144.65;100.00;64500.88;5072740;28;20025;-74
2022/03/10 06:42:04;;;;;;;37.25;18.48;;;;;;;-144.65;100.00;64500.88;5072471;28;20031;-74
2022/03/10 06:44:30;;;;;;;36.05;16.92;;;;;;;-144.65;100.00;64500.88;5070925;28;20025;-73
2022/03/10 06:46:56;;;;;;;41.55;18.85;;;;;;;-144.65;100.00;64500.88;5071168;28;20036;-74
2022/03/10 06:49:21;;;;;;;40.40;18.92;;;;;;;-144.65;100.00;64500.88;5071167;28;20032;-74
2022/03/10 06:51:48;;;;;;;36.67;18.35;;;;;;;-144.65;100.00;64500.88;5071015;28;20107;-74
2022/03/10 06:54:14;;;;;;;38.13;19.05;;;;;;;-144.65;100.00;64500.88;5070592;28;20044;-75
2022/03/10 06:56:39;;;;;;;31.42;16.80;;;;;;;-144.65;100.00;64500.88;5070692;28;20035;-74
2022/03/10 06:59:05;;;;;;;43.80;18.60;;;;;;;-144.65;100.00;64500.88;5070924;28;20033;-73
2022/03/10 07:01:31;;;;;;;35.53;17.33;;;;;;;-144.65;100.00;64500.88;5070510;28;20115;-74
2022/03/10 07:03:57;;;;;;;36.30;17.95;;;;;;;-144.65;100.00;64500.88;5078316;28;20146;-75
2022/03/10 07:06:23;;;;;;;37.72;18.65;;;;;;;-144.65;100.00;64500.88;5080068;28;20111;-73
2022/03/10 07:08:49;;;;;;;43.97;20.45;;;;;;;-144.65;100.00;64500.88;5079569;28;20028;-73
2022/03/10 07:11:15;;;;;;;37.33;19.48;;;;;;;-144.65;100.00;64500.88;5078449;28;20055;-73
2022/03/10 07:13:40;;;;;;;40.70;18.33;;;;;;;-144.65;100.00;64500.88;5069363;28;20045;-74
2022/03/10 07:16:06;;;;;;;41.55;19.48;;;;;;;-144.65;100.00;64500.88;5069270;28;20059;-74
2022/03/10 07:18:31;;;;;;;41.22;20.30;;;;;;;-144.65;100.00;64500.88;5083717;28;20040;-74
2022/03/10 07:20:57;;;;;;;38.67;18.17;;;;;;;-144.65;100.00;64500.88;5081693;28;20020;-73
2022/03/10 07:23:22;;;;;;;47.65;23.75;;;;;;;-144.65;100.00;64500.88;5077785;28;20043;-73
2022/03/10 07:25:47;;;;;;;41.53;20.27;;;;;;;-144.65;100.00;64500.88;5078779;28;20024;-74
2022/03/10 07:28:13;;;;;;;40.92;19.40;;;;;;;-144.65;100.00;64500.88;5081214;28;20429;-74
2022/03/10 07:30:38;;;;;;;61.33;27.58;;;;;;;-144.65;100.00;64500.88;5088526;28;20039;-74
2022/03/10 07:33:04;;;;;;;41.88;19.52;;;;;;;-144.65;100.00;64500.88;5081177;28;20028;-73
2022/03/10 07:35:30;;;;;;;40.25;22.92;;;;;;;-144.65;100.00;64500.88;5076362;28;20050;-77
2022/03/10 07:37:58;;;;;;;47.22;22.33;;;;;;;-144.65;100.00;64500.88;5082417;28;20028;-73
2022/03/10 07:40:23;;;;;;;49.70;22.77;;;;;;;-144.65;100.00;64500.88;5079193;28;20035;-73
2022/03/10 07:42:49;;;;;;;44.33;23.17;;;;;;;-144.65;100.00;64500.88;5083126;28;20047;-73
2022/03/10 07:45:14;;;;;;;44.15;23.08;;;;;;;-144.65;100.00;64500.88;5082613;28;20053;-73
2022/03/10 07:47:40;;;;;;;46.75;21.60;;;;;;;-144.65;100.00;64500.88;5079808;28;20392;-76
2022/03/10 07:50:07;;;;;;;64.35;28.25;;;;;;;-144.65;100.00;64500.88;5084897;28;20532;-73
2022/03/10 07:52:33;;;;;;;44.80;22.08;;;;;;;-144.65;100.00;64500.88;5061586;28;20036;-73
2022/03/10 07:54:59;;;;;;;48.78;25.92;;;;;;;-144.65;100.00;64500.88;5082889;28;20024;-73
2022/03/10 07:57:24;;;;;;;40.85;22.73;;;;;;;-144.65;100.00;64500.88;5082555;28;20560;-73
2022/03/10 07:59:52;;;;;;;39.95;22.38;;;;;;;-144.65;100.00;64500.88;5078666;28;20523;-73
2022/03/10 08:02:21;;;;;;;58.92;26.80;;;;;;;-144.65;100.00;64500.88;5078589;28;20024;-74
2022/03/10 08:04:47;;;;;;;36.22;20.90;;;;;;;-144.65;100.00;64500.88;5080140;28;20157;-74
2022/03/10 08:07:12;;;;;;;95.63;42.53;;;;;;;-144.65;100.00;64500.88;5082212;28;20027;-73
2022/03/10 08:09:38;;;;;;;55.90;28.77;;;;;;;-144.65;100.00;64500.88;5078882;28;20031;-73
2022/03/10 08:12:04;;;;;;;39.25;21.73;;;;;;;-144.65;100.00;64500.88;5080772;28;20099;-72
2022/03/10 08:14:29;;;;;;;86.35;41.33;;;;;;;-144.65;100.00;64500.88;5083865;28;20149;-74
2022/03/10 08:16:55;;;;;;;42.05;22.42;;;;;;;-144.65;100.00;64500.88;5087013;28;20108;-79
2022/03/10 08:19:20;;;;;;;41.20;22.10;;;;;;;-144.65;100.00;64500.88;5086451;28;20032;-72
2022/03/10 08:21:47;;;;;;;39.95;21.38;;;;;;;-144.65;100.00;64500.88;5080614;28;20020;-73
2022/03/10 08:24:13;;;;;;;35.85;22.80;;;;;;;-144.65;100.00;64500.88;5077494;28;20037;-73
2022/03/10 08:26:39;;;;;;;47.30;23.90;;;;;;;-144.65;100.00;64500.88;5078534;28;20035;-73
2022/03/10 08:29:05;;;;;;;39.08;21.38;;;;;;;-144.65;100.00;64500.88;5080028;28;20103;-72
2022/03/10 08:31:31;;;;;;;33.97;20.73;;;;;;;-144.65;100.00;64500.88;5079665;28;20028;-73
2022/03/10 08:33:56;;;;;;;35.50;21.77;;;;;;;-144.65;100.00;64500.88;5077275;28;20438;-72
2022/03/10 08:36:22;;;;;;;33.95;21.10;;;;;;;-144.65;100.00;64500.88;5089079;28;20031;-72
2022/03/10 08:38:47;;;;;;;37.60;21.70;;;;;;;-144.65;100.00;64500.88;5089571;28;20088;-72
2022/03/10 08:41:13;;;;;;;35.53;20.70;;;;;;;-144.65;100.00;64500.88;5090372;28;20032;-72
2022/03/10 08:43:38;;;;;;;36.90;20.30;;;;;;;-144.65;100.00;64500.88;5090285;28;20032;-71
2022/03/10 08:46:05;;;;;;;37.85;21.23;;;;;;;-144.65;100.00;64500.88;5088810;28;20024;-72
2022/03/10 08:48:32;;;;;;;34.22;21.95;;;;;;;-144.65;100.00;64500.88;5088971;28;20020;-72
2022/03/10 08:51:02;;;;;;;36.42;20.38;;;;;;;-144.65;100.00;64500.88;5090078;28;20607;-72
2022/03/10 08:53:29;;;;;;;30.95;20.65;;;;;;;-144.65;100.00;64500.88;5092233;28;20519;-72
2022/03/10 08:55:54;;;;;;;34.03;19.55;;;;;;;-144.65;100.00;64500.88;5096071;28;20027;-72
2022/03/10 08:58:20;;;;;;;32.35;18.95;;;;;;;-144.65;100.00;64500.88;5074088;28;20025;-73
2022/03/10 09:00:45;;;;;;;38.72;20.48;;;;;;;-144.65;100.00;64500.88;5072550;28;20028;-71
2022/03/10 09:03:10;;;;;;;31.52;20.50;;;;;;;-144.65;100.00;64500.88;5074485;28;20043;-76
2022/03/10 09:05:37;;;;;;;39.60;20.35;;;;;;;-144.65;100.00;64500.88;5073447;28;20028;-72
2022/03/10 09:08:04;;;;;;;41.47;21.63;;;;;;;-144.65;100.00;64500.88;5073569;28;20091;-73
2022/03/10 09:10:30;;;;;;;32.75;20.65;;;;;;;-144.65;100.00;64500.88;5073195;28;20038;-73
2022/03/10 09:12:56;;;;;;;29.60;18.70;;;;;;;-144.65;100.00;64500.88;5073451;28;20028;-72
2022/03/10 09:15:21;;;;;;;29.88;18.98;;;;;;;-144.65;100.00;64500.88;5073166;28;20434;-72
2022/03/10 09:17:47;;;;;;;31.02;19.17;;;;;;;-144.65;100.00;64500.88;5073164;28;20111;-73
2022/03/10 09:20:13;;;;;;;33.88;17.92;;;;;;;-144.65;100.00;64500.88;5071573;28;20020;-73
2022/03/10 09:22:39;;;;;;;29.83;18.08;;;;;;;-144.65;100.00;64500.88;5054854;28;20374;-73
2022/03/10 09:25:08;;;;;;;25.70;17.77;;;;;;;-144.65;100.00;64500.88;5073100;28;20024;-73
2022/03/10 09:27:37;;;;;;;26.88;17.23;;;;;;;-144.65;100.00;64500.88;5073594;28;20055;-72
2022/03/10 09:30:05;;;;;;;29.65;16.85;;;;;;;-144.65;100.00;64500.88;5073032;28;20081;-72
2022/03/10 09:32:43;;;;;;;26.65;16.38;;;;;;;-144.65;100.00;64500.88;5072535;28;20040;-72
2022/03/10 09:35:11;;;;;;;27.13;16.50;;;;;;;-144.65;100.00;64500.88;5073280;28;20382;-72
2022/03/10 09:37:36;;;;;;;28.83;17.42;;;;;;;-144.65;100.00;64500.88;5072030;28;20096;-73
2022/03/10 09:40:03;;;;;;;25.85;16.85;;;;;;;-144.65;100.00;64500.88;5072856;28;20064;-73
2022/03/10 09:42:31;;;;;;;26.52;16.25;;;;;;;-144.65;100.00;64500.88;5073290;28;20051;-73
2022/03/10 09:44:58;;;;;;;27.60;17.40;;;;;;;-144.65;100.00;64500.88;5074922;28;20492;-73
2022/03/10 09:47:24;;;;;;;36.60;17.92;;;;;;;-144.65;100.00;64500.88;5074114;28;20033;-73
2022/03/10 09:49:50;;;;;;;26.90;15.90;;;;;;;-144.65;100.00;64500.88;5074618;28;20028;-73
2022/03/10 09:52:16;;;;;;;23.85;16.33;;;;;;;-144.65;100.00;64500.88;5072524;28;20166;-72
2022/03/10 09:54:42;;;;;;;32.13;16.73;;;;;;;-144.65;100.00;64500.88;5072180;28;20044;-73
2022/03/10 09:57:09;;;;;;;24.88;15.15;;;;;;;-144.65;100.00;64500.88;5072426;28;20026;-73
2022/03/10 09:59:50;;;;;;;23.63;15.43;;;;;;;-144.65;100.00;64500.88;5072262;28;20044;-72
2022/03/10 10:02:17;;;;;;;27.38;15.23;;;;;;;-144.65;100.00;64500.88;5072195;28;20483;-73
2022/03/10 10:04:43;;;;;;;25.42;15.73;;;;;;;-144.65;100.00;64500.88;5071724;28;20474;-73
2022/03/10 10:07:10;;;;;;;23.67;15.52;;;;;;;-144.65;100.00;64500.88;5074249;28;20473;-73
2022/03/10 10:09:44;;;;;;;22.42;15.38;;;;;;;-144.65;100.00;64500.88;5078927;28;20081;-74
2022/03/10 10:12:11;;;;;;;21.85;14.75;;;;;;;-144.65;100.00;64500.88;5073316;28;20504;-73
2022/03/10 10:14:39;;;;;;;23.55;14.73;;;;;;;-144.65;100.00;64500.88;5054586;28;20147;-73
2022/03/10 10:17:05;;;;;;;24.55;14.65;;;;;;;-144.65;100.00;64500.88;5071687;28;20029;-72
2022/03/10 10:19:34;;;;;;;24.98;14.38;;;;;;;-144.65;100.00;64500.88;5072011;28;20036;-72
2022/03/10 10:22:09;;;;;;;25.02;14.77;;;;;;;-144.65;100.00;64500.88;5071864;28;20032;-74
2022/03/10 10:24:35;;;;;;;21.23;12.95;;;;;;;-144.65;100.00;64500.88;5071979;28;20032;-74
2022/03/10 10:27:13;;;;;;;19.63;13.13;;;;;;;-144.65;100.00;64500.88;5071946;28;20033;-73
2022/03/10 10:30:06;;;;;;;20.80;13.63;;;;;;;-144.65;100.00;64500.88;5071778;28;20078;-73
2022/03/10 10:32:52;;;;;;;24.13;15.02;;;;;;;-144.65;100.00;64500.88;5069660;28;20379;-73
2022/03/10 10:35:21;;;;;;;;;;;;;;;-144.65;100.00;64500.88;5071871;28;20115;-73
2022/03/10 10:37:49;;;;;;;23.63;13.65;;;;;;;-144.65;100.00;64500.88;5071902;28;19916;-73
2022/03/10 10:40:31;;;;;;;17.80;11.98;;;;;;;-144.65;100.00;64500.88;5071406;28;20025;-74
2022/03/10 10:42:57;;;;;;;25.92;12.98;;;;;;;-144.65;100.00;64500.88;5071488;28;20038;-73
2022/03/10 10:45:25;;;;;;;19.67;13.48;;;;;;;-144.65;100.00;64500.88;5070172;28;20024;-73
2022/03/10 10:48:10;;;;;;;25.23;12.50;;;;;;;-144.65;100.00;64500.88;5071316;28;20045;-73
2022/03/10 10:50:47;;;;;;;18.77;12.25;;;;;;;-144.65;100.00;64500.88;5071264;28;20078;-74
2022/03/10 10:53:32;;;;;;;17.95;10.85;;;;;;;-144.65;100.00;64500.88;5071139;28;20049;-73
2022/03/10 10:55:58;;;;;;;;;;;;;;;-144.65;100.00;64500.88;5071639;28;20041;-73
2022/03/10 10:58:26;;;;;;;17.38;11.80;;;;;;;-144.65;100.00;64500.88;5069829;28;19908;-73